Terminal Aerodrome Forecast
Issued by NWS Wilmington, NC

Home | Current Version | Previous Version | Text Only | Print | Product List | Glossary On
Versions: 1 2 3 4 5 6 7 8 9 10 11 12 13 14
000
FTUS42 KILM 221100
TAFLBT
TAF
KLBT 221120Z 2212/2312 01009KT P6SM VCSH BKN050 BKN100
      TEMPO 2213/2215 5SM -SHRA BKN045
     FM221600 04006KT P6SM SCT050 SCT100=

USA.gov is the U.S. government's official web portal to all federal, state and local government web resources and services.